createdAt,value
2023-02-19T00:27:11.279Z,5
2023-02-19T00:56:04.220Z,5
2023-02-19T01:24:54.248Z,5
2023-02-19T01:53:41.087Z,4
2023-02-19T02:22:35.721Z,4
2023-02-19T02:51:11.551Z,7
2023-02-19T03:19:45.864Z,6
2023-02-19T03:48:23.386Z,5
2023-02-19T04:17:13.309Z,4
2023-02-19T04:46:14.354Z,3
2023-02-19T05:14:57.941Z,3
2023-02-19T05:43:55.907Z,1
2023-02-19T06:12:49.916Z,1
2023-02-19T06:41:42.392Z,2
2023-02-19T07:10:35.911Z,1
2023-02-19T07:39:11.806Z,6
2023-02-19T08:07:56.666Z,3
2023-02-19T08:36:39.505Z,5
2023-02-19T09:05:18.736Z,4
2023-02-19T09:34:00.892Z,4
2023-02-19T10:02:42.684Z,4
2023-02-19T10:31:28.771Z,4
2023-02-19T10:59:40.060Z,7
2023-02-19T11:28:32.093Z,9
2023-02-19T11:57:30.560Z,4
2023-02-19T12:26:21.496Z,5
2023-02-19T12:55:30.501Z,7
2023-02-19T13:53:33.195Z,4
2023-02-19T14:22:37.659Z,6
2023-02-19T16:54:06.333Z,7
2023-02-19T17:22:42.355Z,10
2023-02-19T18:29:41.965Z,10
2023-02-19T19:28:31.637Z,13
2023-02-19T20:40:27.271Z,14
2023-02-19T21:08:48.351Z,10
2023-02-19T21:37:26.916Z,10
2023-02-19T22:05:56.034Z,10
2023-02-19T22:34:49.451Z,10
2023-02-19T23:03:17.078Z,11
2023-02-19T23:31:49.287Z,10
